The Hangar Logo

METARs in Plain English
Latest METAR information for EGVN - BRIZE NORTON

EGVN 252250Z 25007KT CAVOK 08/05 Q1013 NOSIG

In plain english is....

This is a METAR report for EGVN - BRIZE NORTON .
The report was made 63 minutes ago, at 22:50 UTC.
The wind was blowing at a speed of 7 knots (8.1 miles per hour, 3.6 metres per second) from the West/Southwest (250°).
The visibility was greater than 6.2 miles (greater than 10 kilometres).
There were no clouds below 5,000 feet (1,524 metres).
The temperature was 8°C (46°F), a dew point of 5°C (41°F) and a relative humidity of 81.3%.
The altimeter setting (airfield QNH) was 1,013 hPa (29.91 inHg).
Other remarks NOSIG.

UK Mainland

Ireland

Channel Islands (& Isle of Man)

France

Other



Enter
Tel: 07092 887559 - Fax: 07092 183262

Content copyright © 1999-2016 TheHangar.co.uk. All rights reserved.
Please send your questions, comments, or bug reports to the Webmaster.